Página principal
METAR-TAF:

METAR-TAF

Aeroportos :

Igiugig, Alasca, Estados Unidos

latitude: 59-19-27N, longitude: 155-54-06W, altura: 27 m

Observação actual do tempo

O boletim foi feito há 1 hora e 11 minutos, às 10:56 UTC
Vento 10 kt de sudoeste
Temperatura 12°C
Humidade 82%
Pressão 1012 hPa
Visibilidade: 16.1 km
Poucas nuvensa uma altura de 7500 ft
Nuvens fragmentadasa uma altura de 10000 ft

METAR: PAIG 221056Z AUTO 22010KT 10SM FEW075 BKN100 12/09 A2989 RMK AO2 SLP128 T01170094

Hora: 04:07 (12:07 UTC)


TAF: em falta

Observações e previsões do tempo de mais de 4000 aeroportos (mensagens METAR e TAF).

As estações disponíveis são os pontos amarelos e vermelhos sobre o mapa.

Mova o rato sobre o mapa para ver o nome da estação.

Depois clique no ponto para visualizar as observações e previsões meteorológicas.

Para alterar o mapa : clique nos botões verdes com uma cruz preta para aumentar o zoom; no botão verde com uma pitada de zoom; ou nas setas verdes para mapas adjacentes.


METAR-TAF: